< < Back
Terminal Aerodrome Forecast


Current Version              Previous Versions:   1  2  3  4  5  6  7  8  9  

Terminal Aerodrome Forecast

144
FTUS42 KGSP 290525
TAFHKY
TAF
KHKY 290525Z 2906/3006 23003KT P6SM SKC
     FM291000 31003KT 5SM BR FEW250
     FM291200 26005KT P6SM FEW250
     FM300100 VRB03KT P6SM SCT120 BKN250=



Latest METAR

426
SAUS70 KWBC 291000 RRF
MTRHKY
METAR KHKY 290953Z AUTO 00000KT 1/4SM FG VV001 14/14 A2998 RMK AO2
SLP136 T01440144


USA.gov is the U.S. government's official web portal to all federal, state and local government web resources and services.